createdAt,value
2022-10-20T00:01:34.504Z,2.07
2022-10-20T00:04:01.198Z,3.00
2022-10-20T00:06:29.499Z,2.47
2022-10-20T00:08:57.728Z,2.40
2022-10-20T00:11:25.770Z,2.10
2022-10-20T00:13:53.813Z,2.10
2022-10-20T00:16:23.668Z,2.33
2022-10-20T00:18:50.780Z,2.03
2022-10-20T00:21:19.147Z,2.40
2022-10-20T00:23:45.784Z,1.90
2022-10-20T00:26:13.558Z,2.30
2022-10-20T00:28:40.085Z,1.77
2022-10-20T00:31:07.187Z,2.20
2022-10-20T00:33:36.051Z,2.40
2022-10-20T00:36:04.834Z,1.90
2022-10-20T00:38:31.372Z,2.90
2022-10-20T00:40:57.895Z,2.50
2022-10-20T00:43:41.169Z,2.70
2022-10-20T00:46:07.895Z,3.07
2022-10-20T00:48:35.764Z,2.80
2022-10-20T00:51:02.411Z,2.40
2022-10-20T00:53:29.472Z,2.80
2022-10-20T00:55:57.846Z,2.50
2022-10-20T00:58:25.106Z,2.17
2022-10-20T01:00:55.320Z,2.70
2022-10-20T01:03:25.620Z,2.60
2022-10-20T01:05:53.523Z,2.53
2022-10-20T01:08:20.003Z,2.60
2022-10-20T01:10:51.476Z,3.00
2022-10-20T01:13:27.827Z,2.57
2022-10-20T01:16:01.380Z,2.67
2022-10-20T01:18:33.408Z,3.40
2022-10-20T01:21:21.795Z,2.60
2022-10-20T01:24:01.288Z,2.80
2022-10-20T01:26:49.249Z,2.40
2022-10-20T01:29:27.051Z,3.40
2022-10-20T01:32:03.313Z,2.73
2022-10-20T01:34:34.383Z,3.33
2022-10-20T01:37:05.954Z,3.10
2022-10-20T01:39:38.113Z,2.73
2022-10-20T01:42:08.614Z,2.83
2022-10-20T01:44:37.818Z,2.53
2022-10-20T01:47:05.849Z,2.40
2022-10-20T01:49:32.462Z,2.60
2022-10-20T01:52:00.235Z,2.73
2022-10-20T01:54:29.872Z,2.70
2022-10-20T01:57:09.686Z,2.80
2022-10-20T01:59:57.574Z,2.50
2022-10-20T02:03:05.719Z,2.50
2022-10-20T02:05:52.789Z,3.50
2022-10-20T02:08:26.274Z,2.70
2022-10-20T02:10:56.744Z,2.77
2022-10-20T02:13:24.391Z,2.97
2022-10-20T02:15:55.768Z,3.60
2022-10-20T02:18:25.716Z,3.50
2022-10-20T02:20:55.239Z,2.90
2022-10-20T02:23:21.809Z,3.30
2022-10-20T02:25:51.539Z,2.73
2022-10-20T02:28:20.044Z,2.50
2022-10-20T02:30:47.860Z,3.00
2022-10-20T02:33:16.433Z,3.57
2022-10-20T02:35:49.821Z,3.20
2022-10-20T02:38:16.427Z,3.63
2022-10-20T02:40:43.108Z,3.13
2022-10-20T02:43:09.578Z,3.20
2022-10-20T02:45:36.046Z,3.37
2022-10-20T02:48:04.203Z,2.47
2022-10-20T02:50:35.018Z,2.47
2022-10-20T02:53:01.689Z,3.10
2022-10-20T02:55:28.171Z,2.70
2022-10-20T02:57:54.663Z,2.67
2022-10-20T03:00:21.379Z,2.90
2022-10-20T03:02:47.927Z,3.43
2022-10-20T03:05:14.679Z,3.00
2022-10-20T03:07:42.565Z,2.70
2022-10-20T03:10:13.167Z,3.00
2022-10-20T03:12:39.651Z,2.80
2022-10-20T03:15:06.916Z,2.90
2022-10-20T03:17:33.437Z,3.23
2022-10-20T03:20:00.067Z,3.60
2022-10-20T03:22:26.612Z,2.87
2022-10-20T03:24:54.481Z,3.27
2022-10-20T03:27:21.008Z,3.57
2022-10-20T03:29:47.479Z,3.03
2022-10-20T03:32:14.171Z,3.40
2022-10-20T03:34:40.642Z,3.10
2022-10-20T03:37:07.139Z,3.20
2022-10-20T03:39:33.623Z,3.20
2022-10-20T03:42:01.541Z,3.20
2022-10-20T03:44:28.016Z,3.50
2022-10-20T03:46:54.497Z,3.60
2022-10-20T03:49:21.184Z,3.10
2022-10-20T03:51:47.661Z,3.40
2022-10-20T03:54:14.154Z,3.70
2022-10-20T03:56:40.622Z,3.60
2022-10-20T03:59:10.390Z,3.10
2022-10-20T04:01:37.117Z,4.20
2022-10-20T04:04:03.754Z,4.03
2022-10-20T04:06:30.343Z,4.50
2022-10-20T04:08:56.886Z,4.43
2022-10-20T04:11:23.462Z,4.10
2022-10-20T04:13:49.940Z,3.80
2022-10-20T04:16:17.806Z,3.80
2022-10-20T04:18:44.270Z,4.30
2022-10-20T04:21:10.867Z,4.07
2022-10-20T04:23:37.360Z,4.23
2022-10-20T04:26:10.688Z,3.83
2022-10-20T04:28:37.218Z,4.63
2022-10-20T04:31:04.028Z,4.20
2022-10-20T04:33:32.350Z,3.30
2022-10-20T04:35:59.699Z,4.10
2022-10-20T04:38:26.316Z,3.67
2022-10-20T04:40:58.090Z,4.30
2022-10-20T04:43:27.249Z,4.73
2022-10-20T04:45:53.772Z,4.13
2022-10-20T04:48:20.267Z,4.00
2022-10-20T04:50:48.102Z,3.97
2022-10-20T04:53:14.617Z,4.27
2022-10-20T04:55:41.108Z,4.10
2022-10-20T04:58:07.632Z,4.37
2022-10-20T05:00:34.148Z,4.67
2022-10-20T05:03:00.705Z,4.20
2022-10-20T05:05:27.297Z,3.70
2022-10-20T05:07:55.132Z,3.70
2022-10-20T05:10:21.622Z,4.10
2022-10-20T05:12:48.108Z,4.00
2022-10-20T05:15:14.727Z,3.53
2022-10-20T05:17:41.208Z,4.23
2022-10-20T05:20:08.724Z,3.73
2022-10-20T05:22:35.541Z,3.33
2022-10-20T05:25:35.519Z,4.10
2022-10-20T05:27:50.880Z,3.80
2022-10-20T05:30:17.490Z,4.03
2022-10-20T05:32:45.651Z,3.57
2022-10-20T05:35:12.149Z,3.43
2022-10-20T05:37:38.633Z,3.93
2022-10-20T05:40:08.547Z,3.47
2022-10-20T05:42:35.321Z,3.60
2022-10-20T05:45:01.982Z,3.50
2022-10-20T05:47:28.487Z,3.47
2022-10-20T05:49:55.026Z,3.90
2022-10-20T05:52:21.544Z,4.20
2022-10-20T05:54:48.108Z,4.17
2022-10-20T05:57:15.966Z,4.23
2022-10-20T05:59:42.474Z,3.53
2022-10-20T06:02:09.547Z,3.40
2022-10-20T06:04:36.071Z,3.63
2022-10-20T06:07:02.895Z,3.57
2022-10-20T06:09:29.462Z,4.10
2022-10-20T06:11:55.971Z,3.97
2022-10-20T06:14:23.891Z,3.60
2022-10-20T06:16:50.960Z,3.93
2022-10-20T06:19:17.508Z,3.87
2022-10-20T06:21:44.108Z,3.97
2022-10-20T06:24:11.266Z,4.37
2022-10-20T06:26:38.759Z,3.90
2022-10-20T06:29:07.604Z,3.90
2022-10-20T06:31:36.830Z,4.33
2022-10-20T06:34:05.870Z,4.90
2022-10-20T06:36:34.701Z,4.60
2022-10-20T06:39:01.265Z,4.33
2022-10-20T06:41:28.121Z,5.73
2022-10-20T06:43:55.074Z,5.10
2022-10-20T06:46:21.556Z,5.27
2022-10-20T06:48:49.397Z,4.50
2022-10-20T06:51:17.397Z,4.40
2022-10-20T06:53:46.702Z,4.53
2022-10-20T06:56:16.588Z,4.43
2022-10-20T06:58:44.967Z,3.93
2022-10-20T07:01:14.138Z,5.80
2022-10-20T07:03:41.316Z,4.23
2022-10-20T07:06:14.092Z,6.00
2022-10-20T07:08:40.760Z,6.60
2022-10-20T07:11:09.704Z,4.57
2022-10-20T07:13:37.342Z,4.70
2022-10-20T07:16:05.306Z,4.10
2022-10-20T07:18:32.483Z,3.80
2022-10-20T07:21:00.253Z,3.80
2022-10-20T07:23:30.431Z,4.23
2022-10-20T07:26:00.796Z,4.10
2022-10-20T07:28:27.374Z,4.10
2022-10-20T07:30:53.871Z,5.00
2022-10-20T07:33:20.483Z,5.47
2022-10-20T07:35:47.960Z,5.87
2022-10-20T07:38:14.478Z,4.83
2022-10-20T07:40:43.398Z,4.60
2022-10-20T07:43:10.022Z,5.20
2022-10-20T07:45:36.508Z,5.17
2022-10-20T07:48:03.187Z,5.40
2022-10-20T07:50:29.781Z,4.93
2022-10-20T07:52:56.260Z,5.60
2022-10-20T07:55:38.137Z,5.20
2022-10-20T07:58:06.707Z,4.80
2022-10-20T08:00:33.257Z,4.53
2022-10-20T08:02:59.804Z,4.83
2022-10-20T08:05:26.334Z,5.50
2022-10-20T08:07:52.814Z,5.40
2022-10-20T08:10:19.358Z,5.27
2022-10-20T08:12:45.871Z,5.40
2022-10-20T08:15:13.745Z,5.77
2022-10-20T08:17:40.242Z,6.43
2022-10-20T08:20:07.647Z,6.60
2022-10-20T08:22:35.417Z,6.63
2022-10-20T08:25:02.142Z,7.33
2022-10-20T08:27:28.623Z,7.00
2022-10-20T08:30:00.312Z,5.80
2022-10-20T08:32:34.411Z,6.30
2022-10-20T08:35:01.139Z,5.23
2022-10-20T08:37:29.982Z,5.30
2022-10-20T08:39:56.680Z,5.63
2022-10-20T08:42:23.607Z,6.80
2022-10-20T08:44:50.600Z,5.23
2022-10-20T08:47:29.171Z,6.23
2022-10-20T08:50:00.850Z,5.93
2022-10-20T08:52:27.585Z,5.60
2022-10-20T08:54:55.583Z,5.37
2022-10-20T08:57:24.641Z,7.30
2022-10-20T08:59:53.435Z,6.70
2022-10-20T09:02:20.406Z,6.10
2022-10-20T09:04:49.961Z,5.67
2022-10-20T09:07:28.285Z,5.60
2022-10-20T09:10:02.419Z,6.50
2022-10-20T09:12:31.137Z,5.57
2022-10-20T09:14:57.772Z,7.20
2022-10-20T09:17:24.375Z,7.17
2022-10-20T09:19:56.502Z,6.17
2022-10-20T09:22:30.836Z,6.20
2022-10-20T09:24:59.984Z,6.20
2022-10-20T09:27:33.378Z,6.80
2022-10-20T09:30:14.012Z,6.37
2022-10-20T09:32:46.602Z,5.43
2022-10-20T09:35:23.999Z,6.23
2022-10-20T09:38:03.525Z,5.93
2022-10-20T09:40:30.914Z,5.50
2022-10-20T09:43:01.052Z,5.60
2022-10-20T09:45:29.751Z,5.57
2022-10-20T09:48:01.623Z,6.43
2022-10-20T09:50:31.319Z,5.77
2022-10-20T09:52:59.425Z,5.47
2022-10-20T09:55:30.375Z,5.70
2022-10-20T09:57:59.280Z,4.73
2022-10-20T10:00:37.196Z,5.17
2022-10-20T10:03:18.425Z,6.10
2022-10-20T10:05:44.951Z,5.90
2022-10-20T10:08:14.688Z,7.23
2022-10-20T10:10:44.229Z,5.67
2022-10-20T10:13:24.697Z,5.87
2022-10-20T10:16:06.303Z,6.03
2022-10-20T10:18:34.326Z,5.60
2022-10-20T10:21:04.496Z,5.30
2022-10-20T10:23:33.043Z,5.03
2022-10-20T10:26:02.970Z,5.63
2022-10-20T10:28:33.383Z,6.63
2022-10-20T10:31:21.710Z,6.10
2022-10-20T10:33:51.799Z,6.17
2022-10-20T10:36:29.365Z,6.80
2022-10-20T10:38:56.021Z,6.97
2022-10-20T10:41:36.911Z,5.80
2022-10-20T10:44:10.406Z,6.87
2022-10-20T10:46:45.300Z,6.93
2022-10-20T10:49:37.770Z,7.47
2022-10-20T10:52:14.959Z,7.67
2022-10-20T10:54:56.383Z,6.30
2022-10-20T10:57:30.546Z,8.20
2022-10-20T10:59:59.983Z,7.80
2022-10-20T11:02:58.096Z,7.20
2022-10-20T11:05:39.838Z,6.43
2022-10-20T11:08:16.658Z,7.53
2022-10-20T11:10:48.824Z,7.10
2022-10-20T11:13:26.963Z,7.33
2022-10-20T11:16:07.939Z,7.50
2022-10-20T11:18:53.689Z,8.90
2022-10-20T11:21:28.564Z,8.47
2022-10-20T11:24:07.490Z,8.47
2022-10-20T11:26:36.109Z,7.43
2022-10-20T11:29:06.175Z,8.20
2022-10-20T11:31:39.788Z,8.13
2022-10-20T11:34:12.845Z,5.97
2022-10-20T11:36:44.995Z,7.30
2022-10-20T11:39:17.382Z,5.73
2022-10-20T11:41:48.445Z,6.27
2022-10-20T11:44:21.725Z,6.80
2022-10-20T11:46:52.804Z,5.40
2022-10-20T11:49:19.731Z,6.53
2022-10-20T11:52:19.461Z,6.53
2022-10-20T11:55:02.424Z,6.90
2022-10-20T11:57:40.427Z,6.20
2022-10-20T12:03:28.297Z,5.40
2022-10-20T12:06:23.684Z,6.27
2022-10-20T12:09:06.680Z,5.80
2022-10-20T12:11:40.856Z,6.60
2022-10-20T12:14:18.989Z,5.40
2022-10-20T12:17:06.185Z,6.00
2022-10-20T12:19:34.252Z,5.67
2022-10-20T12:22:03.350Z,5.67
2022-10-20T12:24:33.929Z,6.60
2022-10-20T12:27:17.065Z,6.60
2022-10-20T12:29:54.815Z,7.57
2022-10-20T12:32:50.827Z,7.27
2022-10-20T12:35:30.880Z,8.13
2022-10-20T12:37:59.062Z,6.20
2022-10-20T12:40:29.844Z,7.47
2022-10-20T12:42:56.943Z,7.37
2022-10-20T12:45:37.125Z,7.87
2022-10-20T12:48:07.863Z,6.00
2022-10-20T12:50:38.298Z,6.90
2022-10-20T12:53:13.990Z,6.63
2022-10-20T12:55:42.172Z,7.20
2022-10-20T12:58:25.291Z,7.20
2022-10-20T13:01:10.708Z,8.07
2022-10-20T13:03:44.224Z,6.80
2022-10-20T13:06:40.180Z,6.63
2022-10-20T13:09:23.561Z,6.20
2022-10-20T13:11:57.104Z,5.93
2022-10-20T13:14:48.292Z,5.90
2022-10-20T13:17:28.067Z,6.30
2022-10-20T13:20:01.233Z,6.50
2022-10-20T13:22:41.361Z,6.63
2022-10-20T13:25:17.269Z,6.70
2022-10-20T13:27:44.218Z,6.17
2022-10-20T13:30:19.806Z,6.93
2022-10-20T13:33:11.438Z,5.87
2022-10-20T13:35:51.591Z,6.47
2022-10-20T13:38:22.210Z,5.70
2022-10-20T13:40:59.004Z,6.10
2022-10-20T13:43:32.134Z,6.20
2022-10-20T13:46:18.954Z,6.20
2022-10-20T13:49:04.572Z,5.73
2022-10-20T13:51:38.554Z,6.10
2022-10-20T13:54:06.679Z,6.23
2022-10-20T13:56:35.992Z,5.90
2022-10-20T13:59:06.137Z,6.23
2022-10-20T14:01:35.176Z,5.93
2022-10-20T14:04:02.014Z,6.63
2022-10-20T14:06:33.132Z,7.40
2022-10-20T14:09:15.782Z,6.70
2022-10-20T14:11:44.670Z,6.40
2022-10-20T14:14:15.156Z,5.60
2022-10-20T14:16:49.850Z,5.77
2022-10-20T14:19:16.372Z,6.20
2022-10-20T14:21:44.933Z,7.93
2022-10-20T14:24:18.801Z,6.70
2022-10-20T14:26:45.646Z,7.00
2022-10-20T14:29:14.204Z,6.87
2022-10-20T14:31:41.349Z,6.53
2022-10-20T14:34:18.058Z,7.63
2022-10-20T14:36:46.101Z,6.67
2022-10-20T14:39:22.079Z,6.73
2022-10-20T14:41:48.861Z,7.00
2022-10-20T14:44:30.946Z,7.00
2022-10-20T14:47:00.905Z,6.87
2022-10-20T14:49:30.620Z,7.23
2022-10-20T14:51:59.193Z,6.53
2022-10-20T14:57:38.735Z,6.20
2022-10-20T15:00:26.395Z,8.17
2022-10-20T15:02:53.161Z,6.60
2022-10-20T15:05:22.441Z,6.30
2022-10-20T15:07:49.009Z,6.67
2022-10-20T15:10:20.519Z,6.30
2022-10-20T15:12:48.891Z,5.97
2022-10-20T15:15:21.277Z,6.17
2022-10-20T15:17:49.067Z,5.67
2022-10-20T15:20:35.649Z,5.97
2022-10-20T15:23:04.141Z,5.03
2022-10-20T15:25:39.918Z,5.80
2022-10-20T15:28:11.382Z,5.80
2022-10-20T15:30:37.892Z,6.33
2022-10-20T15:33:04.431Z,6.57
2022-10-20T15:35:30.936Z,9.53
2022-10-20T15:37:57.411Z,7.13
2022-10-20T15:40:23.919Z,6.40
2022-10-20T15:42:51.787Z,5.57
2022-10-20T15:45:21.252Z,5.23
2022-10-20T15:47:47.832Z,5.00
2022-10-20T15:50:14.603Z,5.23
2022-10-20T15:52:41.547Z,5.63
2022-10-20T15:55:18.688Z,5.63
2022-10-20T15:57:45.192Z,5.13
2022-10-20T16:00:14.564Z,5.60
2022-10-20T16:02:41.077Z,6.00
2022-10-20T16:05:08.137Z,5.43
2022-10-20T16:07:34.996Z,5.43
2022-10-20T16:10:01.770Z,6.17
2022-10-20T16:12:28.292Z,6.07
2022-10-20T16:14:55.059Z,5.73
2022-10-20T16:17:23.135Z,5.23
2022-10-20T16:19:49.636Z,5.83
2022-10-20T16:22:16.133Z,5.63
2022-10-20T16:24:42.650Z,5.43
2022-10-20T16:27:09.227Z,5.40
2022-10-20T16:29:35.741Z,5.17
2022-10-20T16:32:02.266Z,6.03
2022-10-20T16:34:30.264Z,5.37
2022-10-20T16:36:56.801Z,5.63
2022-10-20T16:39:23.328Z,5.30
2022-10-20T16:41:49.978Z,5.77
2022-10-20T16:44:16.510Z,5.80
2022-10-20T16:46:43.043Z,5.00
2022-10-20T16:49:09.523Z,6.37
2022-10-20T16:51:37.436Z,6.10
2022-10-20T16:54:04.151Z,5.77
2022-10-20T16:56:30.703Z,5.67
2022-10-20T16:58:57.244Z,5.30
2022-10-20T17:01:24.044Z,6.60
2022-10-20T17:03:52.334Z,6.37
2022-10-20T17:06:20.664Z,5.77
2022-10-20T17:08:49.030Z,5.43
2022-10-20T17:11:17.853Z,5.43
2022-10-20T17:13:44.640Z,5.13
2022-10-20T17:16:13.599Z,5.60
2022-10-20T17:18:40.608Z,6.30
2022-10-20T17:21:07.665Z,6.40
2022-10-20T17:23:38.691Z,7.40
2022-10-20T17:26:13.559Z,6.23
2022-10-20T17:28:40.103Z,5.53
2022-10-20T17:31:07.466Z,7.67
2022-10-20T17:33:34.102Z,8.37
2022-10-20T17:36:00.954Z,7.10
2022-10-20T17:38:28.486Z,6.23
2022-10-20T17:40:55.191Z,6.70
2022-10-20T17:43:23.107Z,6.53
2022-10-20T17:46:00.603Z,6.90
2022-10-20T17:48:27.277Z,6.77
2022-10-20T17:51:01.554Z,6.27
2022-10-20T17:53:30.148Z,6.23
2022-10-20T17:56:00.525Z,7.33
2022-10-20T17:58:28.431Z,7.63
2022-10-20T18:00:56.858Z,7.77
2022-10-20T18:03:23.765Z,7.10
2022-10-20T18:05:50.273Z,6.43
2022-10-20T18:08:16.784Z,6.73
2022-10-20T18:10:43.943Z,7.47
2022-10-20T18:13:10.750Z,8.47
2022-10-20T18:15:42.845Z,7.90
2022-10-20T18:18:09.358Z,8.03
2022-10-20T18:20:35.843Z,7.33
2022-10-20T18:23:02.412Z,6.10
2022-10-20T18:25:28.903Z,5.30
2022-10-20T18:27:55.457Z,5.27
2022-10-20T18:30:21.987Z,7.23
2022-10-20T18:32:49.834Z,7.40
2022-10-20T18:35:16.736Z,6.57
2022-10-20T18:37:43.395Z,7.87
2022-10-20T18:40:10.898Z,6.20
2022-10-20T18:42:37.408Z,6.97
2022-10-20T18:45:04.519Z,6.80
2022-10-20T18:47:31.031Z,7.30
2022-10-20T18:49:58.862Z,6.00
2022-10-20T18:52:25.340Z,6.27
2022-10-20T18:54:51.865Z,7.97
2022-10-20T18:57:18.352Z,8.40
2022-10-20T18:59:44.857Z,6.73
2022-10-20T19:02:11.348Z,5.67
2022-10-20T19:04:37.929Z,6.67
2022-10-20T19:07:05.996Z,7.60
2022-10-20T19:09:32.551Z,6.57
2022-10-20T19:11:59.065Z,6.37
2022-10-20T19:14:26.026Z,6.53
2022-10-20T19:16:52.541Z,6.10
2022-10-20T19:19:19.083Z,6.67
2022-10-20T19:21:45.658Z,5.83
2022-10-20T19:24:15.607Z,6.57
2022-10-20T19:26:52.479Z,6.23
2022-10-20T19:29:29.437Z,6.07
2022-10-20T19:31:57.684Z,5.40
2022-10-20T19:34:26.085Z,7.37
2022-10-20T19:36:53.901Z,6.70
2022-10-20T19:41:56.625Z,5.40
2022-10-20T19:44:23.139Z,6.20
2022-10-20T19:46:51.305Z,6.60
2022-10-20T19:49:18.230Z,6.37
2022-10-20T19:51:44.759Z,6.03
2022-10-20T19:54:11.897Z,5.73
2022-10-20T19:56:39.832Z,5.63
2022-10-20T19:59:06.649Z,5.67
2022-10-20T20:01:34.675Z,6.60
2022-10-20T20:04:01.478Z,5.87
2022-10-20T20:06:28.035Z,5.77
2022-10-20T20:08:58.091Z,5.87
2022-10-20T20:11:25.537Z,5.80
2022-10-20T20:13:56.711Z,6.40
2022-10-20T20:16:23.854Z,7.13
2022-10-20T20:18:50.369Z,6.20
2022-10-20T20:21:17.391Z,5.60
2022-10-20T20:24:00.539Z,5.60
2022-10-20T20:26:28.554Z,5.67
2022-10-20T20:28:57.200Z,5.43
2022-10-20T20:31:23.976Z,8.70
2022-10-20T20:33:50.705Z,8.43
2022-10-20T20:36:17.290Z,9.33
2022-10-20T20:38:43.924Z,7.63
2022-10-20T20:41:12.827Z,6.60
2022-10-20T20:43:39.346Z,5.73
2022-10-20T20:46:10.417Z,6.07
2022-10-20T20:48:37.496Z,6.97
2022-10-20T20:51:04.891Z,5.87
2022-10-20T20:56:01.044Z,5.10
2022-10-20T20:58:29.650Z,5.17
2022-10-20T21:01:01.234Z,5.30
2022-10-20T21:03:29.625Z,5.17
2022-10-20T21:05:56.550Z,8.50
2022-10-20T21:08:23.067Z,7.77
2022-10-20T21:10:49.575Z,5.87
2022-10-20T21:13:16.072Z,7.13
2022-10-20T21:15:42.576Z,5.67
2022-10-20T21:18:09.063Z,5.47
2022-10-20T21:20:36.909Z,5.63
2022-10-20T21:23:03.421Z,5.53
2022-10-20T21:25:29.929Z,5.77
2022-10-20T21:27:56.410Z,5.10
2022-10-20T21:30:22.951Z,5.20
2022-10-20T21:32:49.488Z,6.70
2022-10-20T21:35:16.011Z,6.77
2022-10-20T21:37:43.837Z,5.30
2022-10-20T21:40:11.381Z,5.37
2022-10-20T21:42:38.038Z,5.07
2022-10-20T21:45:05.440Z,5.23
2022-10-20T21:47:31.937Z,5.10
2022-10-20T21:49:58.383Z,6.77
2022-10-20T21:52:24.972Z,7.03
2022-10-20T21:54:52.782Z,5.77
2022-10-20T21:57:19.398Z,5.30
2022-10-20T21:59:45.898Z,5.07
2022-10-20T22:02:12.377Z,4.43
2022-10-20T22:04:38.916Z,4.87
2022-10-20T22:07:05.406Z,5.53
2022-10-20T22:09:31.944Z,6.03
2022-10-20T22:11:59.819Z,5.50
2022-10-20T22:14:26.357Z,6.27
2022-10-20T22:16:52.873Z,5.83
2022-10-20T22:19:22.070Z,6.40
2022-10-20T22:21:51.141Z,5.37
2022-10-20T22:24:18.248Z,5.37
2022-10-20T22:26:44.797Z,6.40
2022-10-20T22:29:12.853Z,5.10
2022-10-20T22:31:40.319Z,6.50
2022-10-20T22:34:07.461Z,5.47
2022-10-20T22:36:34.324Z,5.07
2022-10-20T22:39:00.929Z,5.30
2022-10-20T22:41:27.688Z,6.30
2022-10-20T22:43:54.199Z,6.07
2022-10-20T22:46:22.112Z,5.10
2022-10-20T22:48:48.755Z,4.80
2022-10-20T22:51:15.513Z,6.40
2022-10-20T22:53:42.693Z,7.27
2022-10-20T22:56:11.212Z,5.60
2022-10-20T22:58:38.272Z,5.30
2022-10-20T23:01:09.457Z,4.37
2022-10-20T23:03:37.737Z,4.50
2022-10-20T23:06:08.804Z,4.47
2022-10-20T23:08:39.325Z,4.03
2022-10-20T23:11:05.866Z,3.80
2022-10-20T23:13:32.354Z,3.63
2022-10-20T23:15:58.884Z,3.43
2022-10-20T23:18:25.366Z,2.60
2022-10-20T23:20:54.843Z,2.57
2022-10-20T23:23:24.219Z,3.10
2022-10-20T23:25:50.995Z,3.33
2022-10-20T23:28:18.060Z,3.27
2022-10-20T23:30:44.802Z,2.63
2022-10-20T23:33:11.359Z,2.60
2022-10-20T23:35:38.236Z,2.57
2022-10-20T23:38:07.742Z,2.60
2022-10-20T23:40:34.221Z,2.33
2022-10-20T23:43:00.688Z,3.00
2022-10-20T23:45:27.218Z,3.20
2022-10-20T23:47:53.708Z,2.70
2022-10-20T23:50:20.215Z,2.67
2022-10-20T23:52:46.878Z,3.43
2022-10-20T23:55:15.681Z,3.30
2022-10-20T23:57:42.453Z,3.40
